Time;durP1;ratioP1;P1;durP2;ratioP2;P2;SDS_P1;SDS_P2;PMS_P1;PMS_P2;Temp;Humidity;BMP_temperature;BMP_pressure;BME280_temperature;BME280_humidity;BME280_pressure;Samples;Min_cycle;Max_cycle;Signal;HPM_P1;HPM_P2
2021/03/23 00:00:40;;;;;;;8.57;7.60;;;;;;;;;;4992005;28;20477;-61
2021/03/23 00:03:05;;;;;;;8.20;3.78;;;;;;;;;;4991515;28;20074;-61
2021/03/23 00:05:30;;;;;;;5.22;3.03;;;;;;;;;;4991997;28;20030;-75
2021/03/23 00:07:56;;;;;;;46.28;16.02;;;;;;;;;;4991965;28;20063;-76
2021/03/23 00:10:23;;;;;;;17.17;11.00;;;;;;;;;;4992285;28;20034;-76
2021/03/23 00:12:49;;;;;;;14.63;10.02;;;;;;;;;;4991621;28;20026;-76
2021/03/23 00:15:15;;;;;;;5.97;5.38;;;;;;;;;;4991886;28;20307;-75
2021/03/23 00:17:40;;;;;;;8.52;5.38;;;;;;;;;;4985907;28;20030;-75
2021/03/23 00:20:08;;;;;;;11.65;6.82;;;;;;;;;;4992049;28;20373;-76
2021/03/23 00:22:34;;;;;;;3.25;2.38;;;;;;;;;;4990998;28;20092;-75
2021/03/23 00:25:00;;;;;;;2.03;1.58;;;;;;;;;;4974314;28;20054;-75
2021/03/23 00:27:25;;;;;;;6.50;3.97;;;;;;;;;;4991436;28;20060;-74
2021/03/23 00:29:50;;;;;;;7.57;3.50;;;;;;;;;;4992038;28;20109;-76
2021/03/23 00:32:16;;;;;;;5.32;3.38;;;;;;;;;;4988554;28;20088;-76
2021/03/23 00:34:41;;;;;;;5.60;2.97;;;;;;;;;;4992035;28;20525;-76
2021/03/23 00:37:06;;;;;;;5.55;2.28;;;;;;;;;;4991381;28;20096;-76
2021/03/23 00:39:32;;;;;;;4.50;3.25;;;;;;;;;;4987125;28;20026;-76
2021/03/23 00:41:57;;;;;;;4.50;3.53;;;;;;;;;;4991452;28;20023;-76
2021/03/23 00:44:23;;;;;;;5.55;2.58;;;;;;;;;;4988948;28;20026;-76
2021/03/23 00:46:48;;;;;;;5.65;3.97;;;;;;;;;;4991268;28;20030;-76
2021/03/23 00:49:13;;;;;;;3.63;2.63;;;;;;;;;;4991871;28;20504;-76
2021/03/23 00:51:39;;;;;;;6.03;3.95;;;;;;;;;;4993033;28;20032;-76
2021/03/23 00:54:04;;;;;;;8.02;3.95;;;;;;;;;;4995651;28;20034;-76
2021/03/23 00:56:29;;;;;;;5.05;3.65;;;;;;;;;;4995125;28;20120;-76
2021/03/23 00:58:55;;;;;;;7.10;4.68;;;;;;;;;;4995335;28;20121;-76
2021/03/23 01:01:20;;;;;;;10.60;4.88;;;;;;;;;;4995000;28;20127;-76
2021/03/23 01:03:45;;;;;;;6.47;5.00;;;;;;;;;;4990833;28;20040;-75
2021/03/23 01:06:10;;;;;;;7.65;5.03;;;;;;;;;;4994518;28;20508;-76
2021/03/23 01:08:36;;;;;;;5.70;4.90;;;;;;;;;;4991080;28;20073;-76
2021/03/23 01:11:01;;;;;;;14.25;5.63;;;;;;;;;;4977517;28;20117;-76
2021/03/23 01:13:26;;;;;;;8.82;5.72;;;;;;;;;;4994714;28;20125;-76
2021/03/23 01:15:52;;;;;;;5.13;3.55;;;;;;;;;;4992539;28;20034;-76
2021/03/23 01:18:17;;;;;;;7.20;4.78;;;;;;;;;;4994830;28;20030;-76
2021/03/23 01:20:42;;;;;;;4.00;2.92;;;;;;;;;;4994833;28;20503;-76
2021/03/23 01:23:08;;;;;;;2.33;1.73;;;;;;;;;;4994534;28;20029;-76
2021/03/23 01:25:33;;;;;;;5.47;3.00;;;;;;;;;;4994785;28;20046;-74
2021/03/23 01:27:58;;;;;;;5.75;4.22;;;;;;;;;;4994718;28;20056;-74
2021/03/23 01:30:25;;;;;;;15.52;11.25;;;;;;;;;;4994445;28;20026;-75
2021/03/23 01:32:51;;;;;;;15.82;11.75;;;;;;;;;;4994770;28;20116;-76
2021/03/23 01:35:16;;;;;;;17.63;10.98;;;;;;;;;;4995019;28;20026;-76
2021/03/23 01:37:42;;;;;;;13.27;11.35;;;;;;;;;;4994485;28;20499;-76
2021/03/23 01:40:08;;;;;;;12.20;10.80;;;;;;;;;;4994762;28;20023;-76
2021/03/23 01:42:53;;;;;;;12.10;7.30;;;;;;;;;;4994438;28;20495;-76
2021/03/23 01:45:21;;;;;;;10.60;4.97;;;;;;;;;;4994854;28;20026;-76
2021/03/23 01:47:47;;;;;;;7.57;6.35;;;;;;;;;;4994362;28;20485;-76
2021/03/23 01:50:13;;;;;;;8.38;6.07;;;;;;;;;;4989211;28;20066;-76
2021/03/23 01:52:39;;;;;;;7.53;5.93;;;;;;;;;;4992947;28;20065;-76
2021/03/23 01:55:06;;;;;;;20.15;5.57;;;;;;;;;;4994710;28;20058;-76
2021/03/23 01:57:33;;;;;;;4.45;2.63;;;;;;;;;;4976607;28;20026;-76
2021/03/23 01:59:59;;;;;;;4.18;3.30;;;;;;;;;;4993849;28;20026;-76
2021/03/23 02:02:26;;;;;;;4.38;2.60;;;;;;;;;;4993834;28;20514;-76
2021/03/23 02:04:52;;;;;;;3.35;1.75;;;;;;;;;;4991548;28;20438;-75
2021/03/23 02:07:17;;;;;;;9.20;2.00;;;;;;;;;;4994112;28;20068;-76
2021/03/23 02:09:42;;;;;;;5.38;2.70;;;;;;;;;;4994477;28;20034;-76
2021/03/23 02:12:11;;;;;;;4.70;3.38;;;;;;;;;;4993954;28;20030;-78
2021/03/23 02:14:41;;;;;;;4.25;2.88;;;;;;;;;;4994454;28;20045;-77
2021/03/23 02:17:13;;;;;;;4.43;4.03;;;;;;;;;;4994734;28;20018;-77
2021/03/23 02:19:39;;;;;;;11.18;5.00;;;;;;;;;;4988278;28;20011;-77
2021/03/23 02:22:04;;;;;;;5.18;3.08;;;;;;;;;;4992672;28;20361;-78
2021/03/23 02:24:29;;;;;;;5.38;3.83;;;;;;;;;;4994059;28;20026;-77
2021/03/23 02:26:54;;;;;;;12.20;5.35;;;;;;;;;;4993841;28;20034;-77
2021/03/23 02:29:21;;;;;;;9.73;5.13;;;;;;;;;;4991726;28;20018;-77
2021/03/23 02:31:48;;;;;;;7.47;5.78;;;;;;;;;;4993935;28;20037;-77
2021/03/23 02:34:14;;;;;;;17.67;4.43;;;;;;;;;;4993868;28;20030;-77
2021/03/23 02:36:40;;;;;;;6.22;3.72;;;;;;;;;;4993807;28;20030;-77
2021/03/23 02:39:07;;;;;;;6.50;4.60;;;;;;;;;;4993594;28;20120;-77
2021/03/23 02:41:32;;;;;;;3.78;2.63;;;;;;;;;;4992010;28;20026;-77
2021/03/23 02:43:57;;;;;;;11.68;3.03;;;;;;;;;;4993706;28;20485;-77
2021/03/23 02:46:23;;;;;;;6.78;4.45;;;;;;;;;;4993585;28;20088;-77
2021/03/23 02:48:49;;;;;;;8.02;5.85;;;;;;;;;;4993468;28;20030;-77
2021/03/23 02:51:14;;;;;;;14.70;7.82;;;;;;;;;;4990435;28;20084;-77
2021/03/23 02:53:40;;;;;;;11.02;7.95;;;;;;;;;;4993336;28;20018;-77
2021/03/23 02:56:06;;;;;;;11.65;6.65;;;;;;;;;;4993304;28;20042;-77
2021/03/23 02:58:31;;;;;;;11.63;6.75;;;;;;;;;;4993080;28;20072;-77
2021/03/23 03:00:56;;;;;;;10.05;7.35;;;;;;;;;;4993504;28;20146;-65
2021/03/23 03:03:21;;;;;;;9.18;7.07;;;;;;;;;;4992782;28;20030;-65
2021/03/23 03:05:47;;;;;;;7.97;5.28;;;;;;;;;;4989398;28;20044;-65
2021/03/23 03:08:12;;;;;;;11.27;4.22;;;;;;;;;;4992745;28;20119;-65
2021/03/23 03:10:37;;;;;;;10.85;3.97;;;;;;;;;;4988090;28;20045;-65
2021/03/23 03:13:03;;;;;;;14.15;5.85;;;;;;;;;;4992050;28;20026;-65
2021/03/23 03:15:30;;;;;;;9.63;7.03;;;;;;;;;;4992568;28;20034;-65
2021/03/23 03:17:55;;;;;;;11.05;6.65;;;;;;;;;;4992735;28;20070;-65
2021/03/23 03:20:21;;;;;;;9.50;6.72;;;;;;;;;;4993268;28;20022;-65
2021/03/23 03:22:47;;;;;;;17.45;6.13;;;;;;;;;;4992467;28;20097;-66
2021/03/23 03:25:13;;;;;;;6.85;5.65;;;;;;;;;;4988450;28;20036;-65
2021/03/23 03:27:38;;;;;;;7.00;5.35;;;;;;;;;;4992671;28;20034;-65
2021/03/23 03:30:17;;;;;;;15.32;6.80;;;;;;;;;;4993002;28;20073;-65
2021/03/23 03:32:42;;;;;;;12.18;4.10;;;;;;;;;;4992393;28;20122;-66
2021/03/23 03:35:08;;;;;;;7.93;6.38;;;;;;;;;;4992760;28;20034;-65
2021/03/23 03:37:33;;;;;;;10.35;7.45;;;;;;;;;;4989987;28;20565;-65
2021/03/23 03:39:58;;;;;;;21.80;6.72;;;;;;;;;;4975185;28;20350;-65
2021/03/23 03:42:24;;;;;;;11.23;6.45;;;;;;;;;;4992099;28;20113;-66
2021/03/23 03:44:49;;;;;;;9.77;5.10;;;;;;;;;;4992639;28;20102;-65
2021/03/23 03:47:15;;;;;;;13.20;4.38;;;;;;;;;;4992304;28;20030;-65
2021/03/23 03:49:40;;;;;;;4.70;2.22;;;;;;;;;;4992647;28;20026;-65
2021/03/23 03:52:05;;;;;;;10.00;2.88;;;;;;;;;;4992174;28;20027;-65
2021/03/23 03:54:31;;;;;;;3.90;2.15;;;;;;;;;;4990362;28;20026;-65
2021/03/23 03:56:56;;;;;;;3.33;2.67;;;;;;;;;;4970550;28;20023;-65
2021/03/23 03:59:21;;;;;;;2.67;1.83;;;;;;;;;;4992114;28;20033;-65
2021/03/23 04:01:46;;;;;;;2.50;1.35;;;;;;;;;;4991740;28;20046;-65
2021/03/23 04:04:12;;;;;;;6.85;2.10;;;;;;;;;;4991911;28;20030;-65
2021/03/23 04:06:37;;;;;;;7.32;5.45;;;;;;;;;;4974355;28;20023;-65
2021/03/23 04:09:03;;;;;;;4.22;3.00;;;;;;;;;;4991980;28;20109;-64
2021/03/23 04:11:28;;;;;;;10.57;3.72;;;;;;;;;;4991645;28;20417;-65
2021/03/23 04:13:53;;;;;;;4.18;2.90;;;;;;;;;;4988527;28;20109;-64
2021/03/23 04:16:18;;;;;;;10.13;3.30;;;;;;;;;;4986719;28;20390;-65
2021/03/23 04:18:44;;;;;;;5.43;2.72;;;;;;;;;;4991587;28;20030;-65
2021/03/23 04:21:09;;;;;;;4.82;3.97;;;;;;;;;;4991536;28;20026;-65
2021/03/23 04:23:36;;;;;;;7.68;5.55;;;;;;;;;;4987880;28;20098;-65
2021/03/23 04:26:02;;;;;;;14.13;5.35;;;;;;;;;;4991319;28;20105;-65
2021/03/23 04:28:28;;;;;;;12.10;3.75;;;;;;;;;;4991432;28;20041;-65
2021/03/23 04:30:53;;;;;;;8.23;5.90;;;;;;;;;;4991492;28;20038;-64
2021/03/23 04:33:20;;;;;;;6.05;2.75;;;;;;;;;;4988620;28;20034;-65
2021/03/23 04:35:48;;;;;;;4.13;2.47;;;;;;;;;;4991671;28;20077;-65
2021/03/23 04:38:16;;;;;;;5.13;2.88;;;;;;;;;;4991178;28;20125;-65
2021/03/23 04:40:41;;;;;;;4.90;2.65;;;;;;;;;;4991682;28;20053;-65
2021/03/23 04:43:07;;;;;;;5.93;2.28;;;;;;;;;;4991067;28;20050;-64
2021/03/23 04:45:32;;;;;;;6.63;3.40;;;;;;;;;;4991363;28;20085;-65
2021/03/23 04:47:58;;;;;;;6.82;2.85;;;;;;;;;;4991339;28;20408;-65
2021/03/23 04:50:23;;;;;;;3.10;2.33;;;;;;;;;;4991016;28;20039;-65
2021/03/23 04:52:49;;;;;;;14.32;3.58;;;;;;;;;;4991147;28;20022;-64
2021/03/23 04:55:15;;;;;;;6.05;4.47;;;;;;;;;;4991619;28;20026;-65
2021/03/23 04:57:40;;;;;;;5.80;4.07;;;;;;;;;;4991228;28;20030;-65
2021/03/23 05:00:06;;;;;;;3.53;1.60;;;;;;;;;;4991691;28;20033;-65
2021/03/23 05:02:31;;;;;;;4.03;1.83;;;;;;;;;;4990994;28;20438;-65
2021/03/23 05:04:57;;;;;;;3.88;1.33;;;;;;;;;;4986619;28;20027;-65
2021/03/23 05:07:22;;;;;;;2.85;1.50;;;;;;;;;;4991301;28;20535;-65
2021/03/23 05:09:47;;;;;;;2.05;1.60;;;;;;;;;;4991552;28;20113;-65
2021/03/23 05:12:13;;;;;;;6.85;2.83;;;;;;;;;;4985748;28;20808;-65
2021/03/23 05:14:38;;;;;;;4.82;1.80;;;;;;;;;;4991297;28;20038;-65
2021/03/23 05:17:03;;;;;;;1.70;1.02;;;;;;;;;;4991037;28;20038;-65
2021/03/23 05:19:29;;;;;;;2.55;1.13;;;;;;;;;;4991397;28;20413;-65
2021/03/23 05:21:54;;;;;;;6.97;1.92;;;;;;;;;;4991182;28;20107;-65
2021/03/23 05:24:19;;;;;;;2.42;1.63;;;;;;;;;;4990870;28;20027;-65
2021/03/23 05:26:45;;;;;;;2.22;1.55;;;;;;;;;;4991091;28;20026;-64
2021/03/23 05:29:10;;;;;;;2.08;1.50;;;;;;;;;;4991140;28;20037;-65
2021/03/23 05:31:35;;;;;;;4.53;2.03;;;;;;;;;;4990955;28;20096;-65
2021/03/23 05:34:00;;;;;;;2.67;1.42;;;;;;;;;;4988780;28;20397;-65
2021/03/23 05:36:26;;;;;;;4.45;1.50;;;;;;;;;;4989886;28;20030;-65
2021/03/23 05:38:51;;;;;;;1.60;0.98;;;;;;;;;;4992294;28;20037;-65
2021/03/23 05:41:35;;;;;;;8.57;2.08;;;;;;;;;;4993374;28;20370;-65
2021/03/23 05:44:00;;;;;;;5.00;2.55;;;;;;;;;;4994457;28;20062;-65
2021/03/23 05:46:28;;;;;;;2.83;1.73;;;;;;;;;;4994097;28;20073;-64
2021/03/23 05:49:12;;;;;;;8.02;1.25;;;;;;;;;;4989621;28;20041;-64
2021/03/23 05:51:37;;;;;;;14.90;3.67;;;;;;;;;;4990687;28;20076;-64
2021/03/23 05:54:05;;;;;;;4.65;2.90;;;;;;;;;;4992715;28;20039;-65
2021/03/23 05:56:33;;;;;;;3.20;2.58;;;;;;;;;;4994211;28;20038;-65
2021/03/23 05:59:05;;;;;;;4.00;1.65;;;;;;;;;;4993724;28;20022;-65
2021/03/23 06:01:40;;;;;;;13.57;2.28;;;;;;;;;;4990970;28;20056;-65
2021/03/23 06:04:20;;;;;;;3.60;2.13;;;;;;;;;;4994067;28;20484;-65
2021/03/23 06:06:49;;;;;;;3.33;2.20;;;;;;;;;;4994080;28;20105;-65
2021/03/23 06:09:16;;;;;;;1.98;1.30;;;;;;;;;;4993938;28;20477;-65
2021/03/23 06:11:42;;;;;;;11.77;1.95;;;;;;;;;;4994042;28;20023;-65
2021/03/23 06:14:21;;;;;;;10.93;1.65;;;;;;;;;;4994105;28;20793;-65
2021/03/23 06:16:47;;;;;;;2.05;1.75;;;;;;;;;;4993758;28;20034;-65
2021/03/23 06:19:24;;;;;;;2.33;1.92;;;;;;;;;;4993876;28;20022;-65
2021/03/23 06:22:06;;;;;;;1.77;1.15;;;;;;;;;;4988367;28;20493;-65
2021/03/23 06:24:41;;;;;;;9.65;2.50;;;;;;;;;;4991511;28;20034;-65
2021/03/23 06:27:09;;;;;;;3.65;1.95;;;;;;;;;;4993646;28;20029;-65
2021/03/23 06:29:34;;;;;;;10.75;3.20;;;;;;;;;;4993665;28;20113;-65
2021/03/23 06:32:07;;;;;;;2.88;1.92;;;;;;;;;;4993602;28;20448;-66
2021/03/23 06:34:33;;;;;;;2.90;1.48;;;;;;;;;;4991154;28;20097;-66
2021/03/23 06:37:00;;;;;;;4.07;1.73;;;;;;;;;;4993190;28;20038;-66
2021/03/23 06:39:28;;;;;;;2.95;1.92;;;;;;;;;;4993287;28;20105;-66
2021/03/23 06:41:53;;;;;;;5.22;2.15;;;;;;;;;;4993783;28;20022;-62
2021/03/23 06:44:20;;;;;;;2.58;1.65;;;;;;;;;;4993516;28;20153;-61
2021/03/23 06:46:47;;;;;;;5.05;2.50;;;;;;;;;;4992793;28;20531;-61
2021/03/23 06:49:13;;;;;;;7.75;4.15;;;;;;;;;;4993241;28;20643;-62
2021/03/23 06:52:01;;;;;;;4.93;2.80;;;;;;;;;;4993415;28;20022;-62
2021/03/23 06:54:27;;;;;;;8.82;5.53;;;;;;;;;;4990247;28;20030;-62
2021/03/23 06:57:00;;;;;;;14.60;7.13;;;;;;;;;;4993100;28;20030;-62
2021/03/23 06:59:26;;;;;;;9.23;5.05;;;;;;;;;;4987622;28;20026;-62
2021/03/23 07:01:52;;;;;;;4.22;3.05;;;;;;;;;;4993252;28;20069;-62
2021/03/23 07:04:35;;;;;;;9.63;3.08;;;;;;;;;;4993334;28;20495;-62
2021/03/23 07:07:03;;;;;;;5.63;3.13;;;;;;;;;;4993055;28;20381;-62
2021/03/23 07:09:29;;;;;;;10.00;4.95;;;;;;;;;;4975189;28;20429;-61
2021/03/23 07:12:02;;;;;;;20.05;5.82;;;;;;;;;;4987794;28;20050;-62
2021/03/23 07:14:27;;;;;;;9.93;5.25;;;;;;;;;;4993304;28;20062;-61
2021/03/23 07:17:08;;;;;;;16.20;10.80;;;;;;;;;;4972501;28;20440;-63
2021/03/23 07:19:45;;;;;;;12.75;7.13;;;;;;;;;;4993014;28;20454;-62
2021/03/23 07:22:14;;;;;;;5.80;5.13;;;;;;;;;;4992455;28;20081;-62
2021/03/23 07:24:48;;;;;;;16.58;5.97;;;;;;;;;;4993232;28;20117;-62
2021/03/23 07:27:16;;;;;;;14.38;8.68;;;;;;;;;;4989632;28;20045;-62
2021/03/23 07:29:42;;;;;;;8.63;6.18;;;;;;;;;;4992853;28;20109;-62
2021/03/23 07:32:10;;;;;;;7.93;5.05;;;;;;;;;;4992467;28;20146;-62
2021/03/23 07:34:35;;;;;;;10.93;7.38;;;;;;;;;;4975184;28;20421;-62
2021/03/23 07:37:03;;;;;;;8.63;5.28;;;;;;;;;;4992524;28;20028;-62
2021/03/23 07:39:38;;;;;;;8.88;3.90;;;;;;;;;;4992067;28;20446;-62
2021/03/23 07:42:15;;;;;;;11.57;4.43;;;;;;;;;;4992242;28;20105;-62
2021/03/23 07:44:42;;;;;;;4.38;3.05;;;;;;;;;;4989948;28;20026;-62
2021/03/23 07:47:21;;;;;;;5.00;3.20;;;;;;;;;;4992095;28;20110;-62
2021/03/23 07:49:51;;;;;;;12.70;4.85;;;;;;;;;;4989480;28;20018;-62
2021/03/23 07:52:22;;;;;;;10.07;6.40;;;;;;;;;;4987913;28;20037;-62
2021/03/23 07:54:47;;;;;;;4.65;4.15;;;;;;;;;;4986358;28;20110;-62
2021/03/23 07:57:31;;;;;;;11.55;8.00;;;;;;;;;;4991511;28;20537;-75
2021/03/23 08:00:15;;;;;;;17.45;7.57;;;;;;;;;;4987063;28;20069;-75
2021/03/23 08:02:50;;;;;;;9.30;6.07;;;;;;;;;;4990181;28;20749;-75
2021/03/23 08:05:22;;;;;;;7.32;3.08;;;;;;;;;;4992399;28;20085;-75
2021/03/23 08:08:03;;;;;;;5.63;3.72;;;;;;;;;;4988712;28;20026;-73
2021/03/23 08:10:34;;;;;;;9.13;5.70;;;;;;;;;;4986895;28;20030;-67
2021/03/23 08:13:13;;;;;;;14.32;5.05;;;;;;;;;;4989852;28;20354;-74
2021/03/23 08:15:57;;;;;;;9.98;5.32;;;;;;;;;;4986311;28;20053;-75
2021/03/23 08:18:31;;;;;;;25.50;15.85;;;;;;;;;;4991443;28;20162;-75
2021/03/23 08:21:15;;;;;;;14.63;11.93;;;;;;;;;;4991759;28;20026;-75
2021/03/23 08:23:46;;;;;;;12.43;10.50;;;;;;;;;;4991877;28;20046;-75
2021/03/23 08:26:41;;;;;;;24.48;13.13;;;;;;;;;;4991181;28;20026;-74
2021/03/23 08:29:15;;;;;;;7.45;5.35;;;;;;;;;;4903405;28;20041;-74
2021/03/23 08:31:49;;;;;;;4.38;2.35;;;;;;;;;;4989375;28;20146;-75
2021/03/23 08:34:14;;;;;;;7.07;2.58;;;;;;;;;;4991663;28;20082;-75
2021/03/23 08:36:43;;;;;;;9.75;3.92;;;;;;;;;;4991235;28;20122;-75
2021/03/23 08:39:17;;;;;;;5.60;3.22;;;;;;;;;;4959287;28;20037;-75
2021/03/23 08:41:54;;;;;;;3.92;2.22;;;;;;;;;;4979037;28;20030;-74
2021/03/23 08:44:26;;;;;;;15.15;2.97;;;;;;;;;;4980783;28;20034;-75
2021/03/23 08:46:52;;;;;;;3.15;1.48;;;;;;;;;;4988200;28;20389;-75
2021/03/23 08:49:18;;;;;;;5.68;2.40;;;;;;;;;;4987825;28;20038;-75
2021/03/23 08:51:48;;;;;;;4.03;1.88;;;;;;;;;;4988238;28;20037;-74
2021/03/23 08:54:33;;;;;;;2.45;1.63;;;;;;;;;;4981254;28;20197;-75
2021/03/23 08:56:59;;;;;;;9.15;2.47;;;;;;;;;;4986227;28;20080;-67
2021/03/23 08:59:30;;;;;;;7.47;2.45;;;;;;;;;;4987688;28;20149;-66
2021/03/23 09:01:55;;;;;;;8.05;2.17;;;;;;;;;;4985118;28;20051;-67
2021/03/23 09:04:28;;;;;;;7.22;2.17;;;;;;;;;;4975540;28;20395;-67
2021/03/23 09:06:55;;;;;;;6.15;2.92;;;;;;;;;;4971864;28;20030;-66
2021/03/23 09:09:29;;;;;;;4.75;1.92;;;;;;;;;;4965075;28;20026;-66
2021/03/23 09:12:10;;;;;;;1.55;1.30;;;;;;;;;;4982888;28;20055;-66
2021/03/23 09:14:54;;;;;;;8.05;2.90;;;;;;;;;;4991224;28;20484;-66
2021/03/23 09:17:35;;;;;;;11.38;2.75;;;;;;;;;;4990428;28;20085;-66
2021/03/23 09:20:00;;;;;;;6.22;2.17;;;;;;;;;;4982711;28;20018;-66
2021/03/23 09:22:30;;;;;;;16.00;2.85;;;;;;;;;;4986224;28;20090;-64
2021/03/23 09:25:14;;;;;;;6.97;3.15;;;;;;;;;;4988879;28;20023;-64
2021/03/23 09:27:48;;;;;;;6.07;2.58;;;;;;;;;;4987318;28;20702;-66
2021/03/23 09:30:32;;;;;;;2.13;1.75;;;;;;;;;;4989086;28;20457;-70
2021/03/23 09:33:12;;;;;;;5.43;3.75;;;;;;;;;;4989606;28;20041;-70
2021/03/23 09:35:58;;;;;;;6.83;3.10;;;;;;;;;;4989159;28;20035;-69
2021/03/23 09:38:26;;;;;;;8.02;3.47;;;;;;;;;;4990840;28;20053;-69
2021/03/23 09:40:54;;;;;;;6.97;2.78;;;;;;;;;;4987659;28;20059;-69
2021/03/23 09:43:22;;;;;;;4.72;2.75;;;;;;;;;;4992768;28;20054;-67
2021/03/23 09:45:47;;;;;;;7.00;3.20;;;;;;;;;;4991207;28;20023;-68
2021/03/23 09:48:12;;;;;;;25.63;4.20;;;;;;;;;;4984384;28;20452;-68
2021/03/23 09:50:58;;;;;;;10.70;2.53;;;;;;;;;;4981481;28;20026;-66
2021/03/23 09:53:34;;;;;;;6.38;3.00;;;;;;;;;;4974762;28;20066;-66
2021/03/23 09:56:20;;;;;;;8.98;2.15;;;;;;;;;;4989143;28;20037;-66
2021/03/23 09:58:46;;;;;;;5.30;1.30;;;;;;;;;;4981628;28;20034;-66
2021/03/23 10:01:21;;;;;;;6.30;2.10;;;;;;;;;;4974623;28;20042;-66
2021/03/23 10:03:48;;;;;;;6.85;2.60;;;;;;;;;;4975314;28;20042;-67
2021/03/23 10:06:15;;;;;;;5.93;1.60;;;;;;;;;;4978420;28;20026;-68
2021/03/23 10:09:10;;;;;;;5.93;1.08;;;;;;;;;;4975357;28;20022;-68
2021/03/23 10:11:38;;;;;;;19.25;7.45;;;;;;;;;;4962745;28;20497;-67
2021/03/23 10:14:10;;;;;;;11.40;3.70;;;;;;;;;;4976429;28;20374;-67
2021/03/23 10:16:36;;;;;;;3.15;2.20;;;;;;;;;;4977535;28;20034;-68
2021/03/23 10:19:18;;;;;;;6.22;3.00;;;;;;;;;;4979301;28;20032;-67
2021/03/23 10:21:51;;;;;;;7.18;2.17;;;;;;;;;;4987847;28;20034;-68
2021/03/23 10:24:19;;;;;;;10.02;2.78;;;;;;;;;;4983358;28;20048;-68
2021/03/23 10:26:46;;;;;;;6.35;3.22;;;;;;;;;;4986802;28;20034;-68
2021/03/23 10:29:18;;;;;;;3.45;1.00;;;;;;;;;;4986674;28;20084;-68
2021/03/23 10:31:46;;;;;;;8.27;2.70;;;;;;;;;;4988221;28;20030;-68
2021/03/23 10:34:18;;;;;;;3.72;2.25;;;;;;;;;;4985709;28;20038;-68
2021/03/23 10:36:57;;;;;;;5.97;2.42;;;;;;;;;;4986868;28;20033;-68
2021/03/23 10:39:25;;;;;;;9.40;3.88;;;;;;;;;;4974898;28;20030;-69
2021/03/23 10:41:50;;;;;;;3.47;2.60;;;;;;;;;;4980925;28;20031;-69
2021/03/23 10:44:21;;;;;;;12.85;2.95;;;;;;;;;;4979504;28;20019;-68
2021/03/23 10:46:47;;;;;;;11.60;3.28;;;;;;;;;;4980087;28;20412;-68
2021/03/23 10:49:27;;;;;;;4.55;2.75;;;;;;;;;;4978371;28;20026;-68
2021/03/23 10:52:13;;;;;;;9.15;2.25;;;;;;;;;;4981712;28;20459;-67
2021/03/23 10:54:38;;;;;;;4.75;3.05;;;;;;;;;;4961666;28;20031;-68
2021/03/23 10:57:33;;;;;;;5.82;1.60;;;;;;;;;;4982202;28;20449;-68
2021/03/23 11:00:17;;;;;;;4.95;2.58;;;;;;;;;;4988405;28;20061;-68
2021/03/23 11:02:43;;;;;;;13.75;2.85;;;;;;;;;;4988997;28;20086;-67
2021/03/23 11:05:13;;;;;;;5.13;2.70;;;;;;;;;;4986320;28;20406;-67
2021/03/23 11:08:02;;;;;;;10.18;2.38;;;;;;;;;;4983837;28;20493;-68
2021/03/23 11:10:30;;;;;;;12.18;3.03;;;;;;;;;;4988100;28;20409;-68
2021/03/23 11:12:55;;;;;;;3.63;2.17;;;;;;;;;;4989406;28;20044;-67
2021/03/23 11:15:20;;;;;;;5.72;2.78;;;;;;;;;;4989093;28;20036;-67
2021/03/23 11:17:47;;;;;;;6.28;1.90;;;;;;;;;;4978667;28;20242;-68
2021/03/23 11:20:35;;;;;;;11.77;2.03;;;;;;;;;;4985674;28;20022;-68
2021/03/23 11:23:03;;;;;;;2.35;1.40;;;;;;;;;;4989638;28;20038;-68
2021/03/23 11:25:29;;;;;;;5.78;2.85;;;;;;;;;;4985309;28;20113;-67
2021/03/23 11:27:55;;;;;;;2.75;2.08;;;;;;;;;;4985124;28;20599;-67
2021/03/23 11:30:21;;;;;;;4.18;1.83;;;;;;;;;;4987259;28;20072;-67
2021/03/23 11:32:46;;;;;;;14.85;3.13;;;;;;;;;;4988173;28;20030;-67
2021/03/23 11:35:12;;;;;;;4.55;2.45;;;;;;;;;;4967604;28;20039;-67
2021/03/23 11:37:37;;;;;;;3.47;1.98;;;;;;;;;;4983701;28;20038;-67
2021/03/23 11:40:03;;;;;;;6.18;2.90;;;;;;;;;;4981402;28;20462;-67
2021/03/23 11:42:31;;;;;;;8.65;5.18;;;;;;;;;;4988154;28;20019;-66
2021/03/23 11:45:03;;;;;;;2.20;1.30;;;;;;;;;;4963252;28;20019;-66
2021/03/23 11:47:42;;;;;;;4.15;2.35;;;;;;;;;;4983961;28;20081;-68
2021/03/23 11:50:12;;;;;;;3.60;2.45;;;;;;;;;;4982533;28;20030;-67
2021/03/23 11:52:38;;;;;;;11.35;2.50;;;;;;;;;;4982755;28;20114;-67
2021/03/23 11:55:09;;;;;;;4.10;1.48;;;;;;;;;;4984132;28;20063;-66
2021/03/23 11:57:34;;;;;;;3.63;1.63;;;;;;;;;;4985355;28;20077;-66
2021/03/23 12:00:00;;;;;;;6.55;4.25;;;;;;;;;;4983385;28;20406;-67
2021/03/23 12:02:28;;;;;;;8.13;1.50;;;;;;;;;;4976604;28;20510;-67
2021/03/23 12:04:54;;;;;;;10.98;2.28;;;;;;;;;;4979676;28;20022;-66
2021/03/23 12:07:33;;;;;;;13.45;2.85;;;;;;;;;;4986905;28;20033;-66
2021/03/23 12:10:04;;;;;;;2.67;1.42;;;;;;;;;;4989343;28;20484;-67
2021/03/23 12:12:29;;;;;;;7.07;4.47;;;;;;;;;;4985613;28;20759;-66
2021/03/23 12:15:10;;;;;;;2.53;1.35;;;;;;;;;;4982759;28;20069;-67
2021/03/23 12:17:36;;;;;;;8.77;1.50;;;;;;;;;;4980344;28;20109;-66
2021/03/23 12:20:07;;;;;;;19.65;3.00;;;;;;;;;;4982146;28;20027;-67
2021/03/23 12:22:32;;;;;;;7.05;2.67;;;;;;;;;;4978999;28;20065;-67
2021/03/23 12:24:58;;;;;;;6.47;2.35;;;;;;;;;;4976833;28;20050;-66
2021/03/23 12:27:24;;;;;;;1.55;1.13;;;;;;;;;;4976906;28;20082;-66
2021/03/23 12:29:49;;;;;;;2.90;1.73;;;;;;;;;;4958930;28;20469;-67
2021/03/23 12:32:16;;;;;;;3.13;2.30;;;;;;;;;;4977468;28;20014;-66
2021/03/23 12:34:42;;;;;;;6.93;4.38;;;;;;;;;;4975402;28;20343;-66
2021/03/23 12:37:08;;;;;;;8.55;4.05;;;;;;;;;;4976827;28;20110;-66
2021/03/23 12:39:33;;;;;;;7.97;3.35;;;;;;;;;;4960606;28;20440;-66
2021/03/23 12:41:58;;;;;;;4.70;1.25;;;;;;;;;;4959757;28;20026;-66
2021/03/23 12:44:23;;;;;;;5.78;3.33;;;;;;;;;;4976874;28;20023;-66
2021/03/23 12:46:49;;;;;;;3.28;2.20;;;;;;;;;;4976726;28;20056;-66
2021/03/23 12:49:14;;;;;;;10.32;2.83;;;;;;;;;;4977912;28;20058;-66
2021/03/23 12:51:43;;;;;;;8.95;3.58;;;;;;;;;;4977767;28;20033;-65
2021/03/23 12:54:17;;;;;;;10.65;3.03;;;;;;;;;;4976473;28;20569;-66
2021/03/23 12:56:43;;;;;;;6.30;2.30;;;;;;;;;;4976611;28;20030;-72
2021/03/23 12:59:35;;;;;;;5.97;2.75;;;;;;;;;;4959126;28;20045;-73
2021/03/23 13:02:00;;;;;;;3.22;2.28;;;;;;;;;;4966952;28;20050;-73
2021/03/23 13:04:26;;;;;;;5.65;3.00;;;;;;;;;;4974702;28;20037;-72
2021/03/23 13:06:55;;;;;;;7.28;4.45;;;;;;;;;;4978455;28;20569;-74
2021/03/23 13:09:20;;;;;;;6.35;1.52;;;;;;;;;;4975879;28;20144;-72
2021/03/23 13:11:48;;;;;;;4.32;1.52;;;;;;;;;;4979228;28;20837;-72
2021/03/23 13:14:18;;;;;;;3.72;1.48;;;;;;;;;;4977099;28;20072;-68
2021/03/23 13:16:43;;;;;;;2.85;2.05;;;;;;;;;;4982228;28;20373;-69
2021/03/23 13:19:08;;;;;;;3.70;1.60;;;;;;;;;;4992103;28;20045;-69
2021/03/23 13:21:35;;;;;;;6.50;2.30;;;;;;;;;;4973715;28;20037;-69
2021/03/23 13:24:04;;;;;;;15.13;1.52;;;;;;;;;;4988782;28;20383;-68
2021/03/23 13:26:30;;;;;;;14.50;3.17;;;;;;;;;;4991992;28;20029;-69
2021/03/23 13:28:55;;;;;;;7.50;1.67;;;;;;;;;;4985289;28;20058;-69
2021/03/23 13:31:22;;;;;;;6.13;1.63;;;;;;;;;;4984671;28;20492;-68
2021/03/23 13:33:48;;;;;;;2.47;1.27;;;;;;;;;;4988775;28;20105;-69
2021/03/23 13:36:31;;;;;;;5.95;2.70;;;;;;;;;;4984736;28;20050;-68
2021/03/23 13:38:58;;;;;;;11.88;2.88;;;;;;;;;;4986973;28;20073;-68
2021/03/23 13:41:24;;;;;;;7.47;2.15;;;;;;;;;;4989040;28;20051;-68
2021/03/23 13:43:53;;;;;;;4.63;1.90;;;;;;;;;;4973616;28;20112;-68
2021/03/23 13:46:24;;;;;;;4.07;2.13;;;;;;;;;;4988330;28;20039;-69
2021/03/23 13:48:49;;;;;;;2.55;1.33;;;;;;;;;;4983836;28;20037;-72
2021/03/23 13:51:15;;;;;;;2.63;1.08;;;;;;;;;;4987875;28;20034;-72
2021/03/23 13:53:41;;;;;;;3.20;1.58;;;;;;;;;;4979465;28;20032;-73
2021/03/23 13:56:07;;;;;;;6.03;2.55;;;;;;;;;;4979046;28;20027;-72
2021/03/23 13:58:32;;;;;;;4.30;2.03;;;;;;;;;;4982185;28;20122;-72
2021/03/23 14:00:58;;;;;;;5.90;1.88;;;;;;;;;;4983468;28;20046;-72
2021/03/23 14:03:23;;;;;;;11.07;3.22;;;;;;;;;;4982906;28;20125;-72
2021/03/23 14:05:49;;;;;;;13.35;2.65;;;;;;;;;;4979110;28;20029;-73
2021/03/23 14:08:22;;;;;;;7.88;3.47;;;;;;;;;;4982596;28;20029;-72
2021/03/23 14:10:48;;;;;;;1.25;0.98;;;;;;;;;;4985067;28;20511;-73
2021/03/23 14:13:14;;;;;;;3.45;1.30;;;;;;;;;;4982996;28;20189;-72
2021/03/23 14:15:40;;;;;;;5.95;3.05;;;;;;;;;;4982936;28;20142;-65
2021/03/23 14:18:06;;;;;;;4.00;1.98;;;;;;;;;;4984115;28;20023;-62
2021/03/23 14:20:32;;;;;;;12.13;4.63;;;;;;;;;;4966151;28;20022;-62
2021/03/23 14:23:00;;;;;;;6.10;3.05;;;;;;;;;;4983567;28;20034;-62
2021/03/23 14:25:30;;;;;;;6.18;2.03;;;;;;;;;;4983101;28;20114;-62
2021/03/23 14:27:57;;;;;;;9.05;3.00;;;;;;;;;;4984173;28;20023;-66
2021/03/23 14:30:24;;;;;;;7.22;3.13;;;;;;;;;;4985382;28;20081;-66
2021/03/23 14:32:50;;;;;;;9.25;2.95;;;;;;;;;;4989582;28;20026;-67
2021/03/23 14:35:16;;;;;;;3.97;2.17;;;;;;;;;;4990833;28;20354;-67
2021/03/23 14:37:43;;;;;;;6.88;1.25;;;;;;;;;;4980278;28;20027;-69
2021/03/23 14:40:37;;;;;;;7.05;1.65;;;;;;;;;;4984268;28;20026;-69
2021/03/23 14:43:12;;;;;;;7.72;2.28;;;;;;;;;;4969685;28;20039;-67
2021/03/23 14:45:38;;;;;;;7.93;2.55;;;;;;;;;;4978663;28;20046;-65
2021/03/23 14:48:04;;;;;;;6.25;2.17;;;;;;;;;;4979524;28;20054;-65